ADDS METAR Data INFO
IDs: Format: Raw Decoded Include TAF

Data at: 1922 UTC 23 Apr 2018

KCMI 231917Z 10017KT 2SM -RA BR BKN021 OVC033 14/13 A3005 RMK AO2 RAB09 P0000 T01390128
KCMI 231853Z 10015KT 10SM OVC025 16/11 A3005 RMK AO2 SLP176 T01610106
KCMI 231809Z 10013KT 10SM BKN027 BKN031 OVC085 17/09 A3005 RMK AO2 T01720094
KCMI 231753Z 10014KT 10SM FEW022 SCT026 OVC085 17/09 A3006 RMK AO2 SLP177 T01720094 10178 20089 58007
KCMI 231700Z 10014KT 10SM FEW023 BKN027 OVC085 16/08 A3007 RMK AO2 T01610078
KCMI 231653Z 09014KT 10SM SCT023 SCT028 BKN085 16/07 A3007 RMK AO2 SLP184 T01560072
KCMI 231553Z 07009KT 10SM BKN075 BKN085 14/06 A3006 RMK AO2 SLP181 T01440056
KCMI 231453Z 06011KT 10SM FEW043 BKN075 OVC090 13/02 A3008 RMK AO2 SLP186 T01280022 58001
KCMI 231353Z 06012KT 10SM SCT095 11/00 A3009 RMK AO2 SLP189 T01110000
KCMI 231253Z 06014KT 10SM SCT110 09/M01 A3010 RMK AO2 SLP193 T00941011
KCMI 231153Z 05015KT 10SM FEW070 BKN100 BKN120 09/M02 A3008 RMK AO2 SLP187 T00891022 10111 20083 55001
KCMI 231053Z 05014KT 10SM CLR 08/M03 A3008 RMK AO2 SLP186 T00831028
KCMI 230953Z AUTO 05014KT 10SM CLR 08/M03 A3008 RMK AO2 SLP185 T00831028
KCMI 230853Z AUTO 05013KT 10SM CLR 09/M02 A3009 RMK AO2 SLP188 T00891022 56010
KCMI 230753Z AUTO 05013KT 10SM CLR 10/M01 A3010 RMK AO2 SLP191 T01001011
KCMI 230653Z AUTO 05013KT 10SM CLR 10/M01 A3011 RMK AO2 SLP195 T01001011
KCMI 230553Z AUTO 05016KT 10SM CLR 11/M01 A3012 RMK AO2 SLP199 T01111006 10178 20111 402060083 58008
KCMI 230453Z AUTO 05013KT 10SM CLR 12/01 A3013 RMK AO2 SLP203 T01220006
KCMI 230353Z 06012KT 10SM CLR 12/00 A3014 RMK AO2 SLP207 T01220000
KCMI 230253Z 06010KT 10SM CLR 13/01 A3014 RMK AO2 SLP208 T01280006 50003
KCMI 230153Z 06009KT 10SM CLR 13/01 A3015 RMK AO2 SLP209 T01330006
KCMI 230053Z 06012KT 10SM CLR 16/M01 A3014 RMK AO2 SLP207 T01561006
KCMI 222353Z 06015G20KT 10SM CLR 18/M01 A3014 RMK AO2 SLP205 T01781011 10206 20178 55002
KCMI 222253Z 08015KT 10SM CLR 19/M04 A3013 RMK AO2 SLP203 T01891039
KCMI 222153Z 08018G21KT 10SM CLR 19/M03 A3013 RMK AO2 PK WND 07026/2057 SLP203 T01941033
KCMI 222053Z 07017G25KT 10SM CLR 20/M02 A3014 RMK AO2 SLP206 T02001017 58023
KCMI 221953Z AUTO 06019KT 10SM CLR 20/M02 A3016 RMK AO2 SLP214 T02001017
KCMI 221853Z 06017KT 10SM CLR 18/M02 A3019 RMK AO2 SLP222 T01831017
KCMI 221753Z 07018KT 10SM FEW120 19/M02 A3021 RMK AO2 SLP230 T01891017 10189 20083 58010
KCMI 221653Z 06015KT 10SM OVC110 14/M01 A3023 RMK AO2 SLP236 T01441011
KCMI 221553Z 06011KT 10SM OVC100 12/M02 A3023 RMK AO2 SLP238 T01221017
KCMI 221453Z 05013KT 10SM OVC110 11/M02 A3024 RMK AO2 SLP242 T01111017 58012
KCMI 221353Z 08012KT 10SM CLR 11/M02 A3027 RMK AO2 SLP251 T01061022
KCMI 221253Z 08012KT 10SM OVC120 09/M02 A3028 RMK AO2 SLP254 T00891017
KCMI 221153Z 08010KT 10SM OVC110 08/M01 A3028 RMK AO2 SLP254 T00831011 10106 20083 53005
KCMI 221053Z 06011KT 10SM SCT120 08/M01 A3026 RMK AO2 SLP248 T00831011
KCMI 220953Z AUTO 07013KT 10SM CLR 09/M02 A3025 RMK AO2 SLP243 T00891017
KCMI 220853Z AUTO 07014KT 10SM FEW120 09/M01 A3026 RMK AO2 SLP247 T00891011 55004
KCMI 220753Z AUTO 07013KT 10SM CLR 09/M01 A3025 RMK AO2 SLP242 T00941011